Time;durP1;ratioP1;P1;durP2;ratioP2;P2;SDS_P1;SDS_P2;PMS_P1;PMS_P2;Temp;Humidity;BMP_temperature;BMP_pressure;BME280_temperature;BME280_humidity;BME280_pressure;Samples;Min_cycle;Max_cycle;Signal;HPM_P1;HPM_P2
2021/12/12 00:01:45;;;;;;;98.07;44.67;;;3.90;99.90;;;;;;4993995;28;20052;-84
2021/12/12 00:04:15;;;;;;;97.70;44.55;;;3.90;99.90;;;;;;4997454;28;20078;-84
2021/12/12 00:06:51;;;;;;;98.03;45.53;;;3.90;99.90;;;;;;5017694;28;20563;-84
2021/12/12 00:09:48;;;;;;;94.90;44.25;;;4.00;99.90;;;;;;5016084;28;21026;-84
2021/12/12 00:12:18;;;;;;;99.78;45.60;;;4.00;99.90;;;;;;4963247;28;20048;-84
2021/12/12 00:14:44;;;;;;;96.00;45.33;;;4.00;99.90;;;;;;4973461;28;20447;-84
2021/12/12 00:17:12;;;;;;;107.70;46.03;;;4.10;99.90;;;;;;4955540;28;20047;-84
2021/12/12 00:19:39;;;;;;;97.80;45.95;;;4.00;99.90;;;;;;4976478;28;20051;-85
2021/12/12 00:22:09;;;;;;;103.10;46.10;;;4.00;99.90;;;;;;4996550;28;20134;-83
2021/12/12 00:24:35;;;;;;;90.55;44.70;;;4.00;99.90;;;;;;4989978;28;20044;-83
2021/12/12 00:27:01;;;;;;;94.53;45.22;;;4.10;99.90;;;;;;4977395;28;20048;-83
2021/12/12 00:29:31;;;;;;;95.75;43.80;;;4.00;99.90;;;;;;4973611;28;20040;-84
2021/12/12 00:32:03;;;;;;;85.22;42.50;;;4.00;99.90;;;;;;4972801;28;20156;-86
2021/12/12 00:34:36;;;;;;;89.28;43.38;;;4.10;99.90;;;;;;4977200;28;20506;-84
2021/12/12 00:37:08;;;;;;;84.70;43.60;;;4.10;99.90;;;;;;5001269;28;20042;-83
2021/12/12 00:39:37;;;;;;;84.18;42.85;;;4.10;99.90;;;;;;4978951;28;20058;-84
2021/12/12 00:42:08;;;;;;;89.97;41.90;;;4.10;99.90;;;;;;4980666;28;20632;-84
2021/12/12 00:44:38;;;;;;;79.25;41.50;;;4.20;99.90;;;;;;4978435;28;20050;-83
2021/12/12 00:47:07;;;;;;;94.50;43.60;;;4.20;99.90;;;;;;4978331;28;20561;-86
2021/12/12 00:49:38;;;;;;;79.40;41.67;;;4.10;99.90;;;;;;4982778;28;20425;-83
2021/12/12 00:52:10;;;;;;;84.13;41.22;;;4.20;99.90;;;;;;5002150;28;20548;-84
2021/12/12 00:54:37;;;;;;;77.22;40.72;;;4.30;99.90;;;;;;4997002;28;20351;-83
2021/12/12 00:57:08;;;;;;;80.57;41.33;;;4.20;99.90;;;;;;4977073;28;20513;-84
2021/12/12 00:59:35;;;;;;;82.25;40.40;;;4.20;99.90;;;;;;4977681;28;20047;-84
2021/12/12 01:02:05;;;;;;;76.70;38.38;;;4.30;99.90;;;;;;4977980;28;20048;-84
2021/12/12 01:04:37;;;;;;;75.85;40.28;;;4.30;99.90;;;;;;4967943;28;20048;-83
2021/12/12 01:07:07;;;;;;;84.20;40.28;;;4.30;99.90;;;;;;4984503;28;20047;-84
2021/12/12 01:09:40;;;;;;;70.25;38.50;;;4.30;99.90;;;;;;5001087;28;20827;-84
2021/12/12 01:12:10;;;;;;;79.80;39.03;;;4.30;99.90;;;;;;5000304;28;20056;-83
2021/12/12 01:14:43;;;;;;;71.25;37.40;;;4.30;99.90;;;;;;5002947;28;20308;-83
2021/12/12 01:17:14;;;;;;;70.85;38.75;;;4.30;99.90;;;;;;4999801;28;20043;-83
2021/12/12 01:19:55;;;;;;;66.30;37.05;;;4.30;99.90;;;;;;5008853;28;20168;-84
2021/12/12 01:22:30;;;;;;;78.40;37.33;;;4.30;99.90;;;;;;4999071;28;20289;-84
2021/12/12 01:25:00;;;;;;;72.05;37.80;;;4.30;99.90;;;;;;4998706;28;20243;-84
2021/12/12 01:27:26;;;;;;;67.20;37.42;;;4.40;99.90;;;;;;4997033;28;20043;-84
2021/12/12 01:29:52;;;;;;;69.55;36.15;;;4.30;99.90;;;;;;4974159;28;20035;-85
2021/12/12 01:32:29;;;;;;;69.40;36.80;;;4.40;99.90;;;;;;4986857;28;20105;-83
2021/12/12 01:34:58;;;;;;;65.80;35.53;;;4.40;99.90;;;;;;5002759;28;20044;-83
2021/12/12 01:40:06;;;;;;;65.60;35.53;;;4.50;99.90;;;;;;4999381;28;20122;-84
2021/12/12 01:42:38;;;;;;;64.25;34.20;;;4.40;99.90;;;;;;5002570;28;20497;-84
2021/12/12 01:45:21;;;;;;;56.25;33.92;;;4.40;99.90;;;;;;5022732;28;20047;-84
2021/12/12 01:47:50;;;;;;;;;;;4.40;99.90;;;;;;5005650;28;20577;-84
2021/12/12 01:50:25;;;;;;;56.55;31.90;;;4.40;99.90;;;;;;4995551;28;19939;-84
2021/12/12 01:52:56;;;;;;;58.00;32.50;;;4.50;99.90;;;;;;5002921;28;20399;-83
2021/12/12 01:55:32;;;;;;;55.33;32.60;;;4.40;99.90;;;;;;5001201;28;20062;-85
2021/12/12 01:58:10;;;;;;;62.28;31.77;;;4.40;99.90;;;;;;5003522;28;20103;-84
2021/12/12 02:01:02;;;;;;;55.78;31.13;;;4.50;99.90;;;;;;5005744;28;20100;-83
2021/12/12 02:03:32;;;;;;;56.72;30.38;;;4.50;99.90;;;;;;5003108;28;20191;-83
2021/12/12 02:06:00;;;;;;;48.25;29.20;;;4.50;99.90;;;;;;5001386;28;20059;-84
2021/12/12 02:08:28;;;;;;;52.35;29.02;;;4.50;99.90;;;;;;5004650;28;20141;-84
2021/12/12 02:11:01;;;;;;;59.63;30.60;;;4.50;99.90;;;;;;5000998;28;20150;-85
2021/12/12 02:13:31;;;;;;;55.90;28.98;;;4.40;99.90;;;;;;5001083;28;20054;-85
2021/12/12 02:16:00;;;;;;;53.22;28.30;;;4.40;99.90;;;;;;4999599;28;20653;-86
2021/12/12 02:18:32;;;;;;;49.95;28.98;;;4.50;99.90;;;;;;4979332;28;20215;-85
2021/12/12 02:21:12;;;;;;;49.67;28.85;;;4.50;99.90;;;;;;5003369;28;20035;-83
2021/12/12 02:37:26;;;;;;;50.78;27.80;;;4.60;99.90;;;;;;5018268;28;20135;-83
2021/12/12 02:39:53;;;;;;;57.47;28.35;;;4.60;99.90;;;;;;4997415;28;20578;-84
2021/12/12 02:42:21;;;;;;;47.92;26.65;;;4.60;99.90;;;;;;5000998;28;20362;-84
2021/12/12 02:44:52;;;;;;;48.22;26.58;;;4.60;99.90;;;;;;5000433;28;20051;-84
2021/12/12 02:47:20;;;;;;;51.85;27.30;;;4.60;99.90;;;;;;4999676;28;20421;-83
2021/12/12 02:52:19;;;;;;;48.83;27.23;;;4.60;99.90;;;;;;4995615;28;20635;-83
2021/12/12 02:54:46;;;;;;;53.20;26.75;;;4.60;99.90;;;;;;4993745;28;20055;-84
2021/12/12 02:57:13;;;;;;;46.47;25.70;;;4.70;99.90;;;;;;4968369;28;20089;-85
2021/12/12 02:59:42;;;;;;;41.97;24.75;;;4.70;99.90;;;;;;4996441;28;20639;-84
2021/12/12 03:02:16;;;;;;;44.35;26.90;;;4.70;99.90;;;;;;5000537;28;20043;-85
2021/12/12 03:04:42;;;;;;;49.95;25.73;;;4.80;99.90;;;;;;5002626;28;20035;-84
2021/12/12 03:07:10;;;;;;;48.33;24.65;;;4.70;99.90;;;;;;4998607;28;20935;-85
2021/12/12 03:09:40;;;;;;;47.75;24.95;;;4.70;99.90;;;;;;4982390;28;20788;-84
2021/12/12 03:12:19;;;;;;;49.03;24.45;;;4.70;99.90;;;;;;5001364;28;20063;-86
2021/12/12 03:14:47;;;;;;;44.30;24.05;;;4.80;99.90;;;;;;4994953;28;22590;-84
2021/12/12 03:17:21;;;;;;;47.60;24.48;;;4.70;99.90;;;;;;4982173;28;20043;-84
2021/12/12 03:19:54;;;;;;;42.72;23.30;;;4.80;99.90;;;;;;4998423;28;20051;-86
2021/12/12 03:22:21;;;;;;;44.67;23.73;;;4.70;99.90;;;;;;5015201;28;20483;-86
2021/12/12 03:24:48;;;;;;;44.75;23.45;;;4.80;99.90;;;;;;5004194;28;20051;-87
2021/12/12 03:27:15;;;;;;;48.63;23.33;;;4.70;99.90;;;;;;4999616;28;20040;-85
2021/12/12 03:29:42;;;;;;;43.95;22.90;;;4.90;99.90;;;;;;4974258;28;20047;-84
2021/12/12 03:32:15;;;;;;;41.10;22.88;;;4.80;99.90;;;;;;5003420;28;20486;-85
2021/12/12 03:34:48;;;;;;;46.47;22.13;;;4.80;99.90;;;;;;4975009;28;20222;-86
2021/12/12 03:37:16;;;;;;;40.03;22.45;;;4.80;99.90;;;;;;4968484;28;20044;-85
2021/12/12 03:39:45;;;;;;;42.35;21.90;;;4.80;99.90;;;;;;5003801;28;20043;-85
2021/12/12 03:42:19;;;;;;;44.25;22.58;;;4.80;99.90;;;;;;5017132;28;20055;-85
2021/12/12 03:44:49;;;;;;;45.08;22.67;;;4.90;99.90;;;;;;4999465;28;20043;-86
2021/12/12 03:47:29;;;;;;;42.03;21.88;;;4.90;99.90;;;;;;5007838;28;20754;-85
2021/12/12 03:49:56;;;;;;;42.05;21.40;;;4.90;99.90;;;;;;4997280;28;20975;-86
2021/12/12 03:52:23;;;;;;;37.25;20.67;;;4.90;99.90;;;;;;5001578;28;20039;-84
2021/12/12 03:54:53;;;;;;;42.85;21.70;;;4.90;99.90;;;;;;4977223;28;20214;-87
2021/12/12 03:57:20;;;;;;;40.45;20.73;;;4.90;99.90;;;;;;5001329;28;20035;-86
2021/12/12 03:59:47;;;;;;;41.78;21.67;;;5.00;99.90;;;;;;4997871;28;20560;-84
2021/12/12 04:02:13;;;;;;;39.15;20.38;;;4.90;99.90;;;;;;5003568;28;20519;-85
2021/12/12 04:04:41;;;;;;;40.35;21.15;;;5.00;99.90;;;;;;4996102;28;20260;-85
2021/12/12 04:07:12;;;;;;;37.72;19.98;;;4.90;99.90;;;;;;5006918;28;20143;-84
2021/12/12 04:09:38;;;;;;;40.58;21.55;;;5.00;99.90;;;;;;4981396;28;20409;-85
2021/12/12 04:12:07;;;;;;;37.33;20.30;;;5.00;99.90;;;;;;4992836;28;20950;-84
2021/12/12 04:14:33;;;;;;;41.92;21.13;;;5.00;99.90;;;;;;5004639;28;20056;-86
2021/12/12 04:17:04;;;;;;;40.08;19.95;;;5.10;99.90;;;;;;5012069;28;20293;-85
2021/12/12 04:19:30;;;;;;;37.13;20.42;;;5.00;99.90;;;;;;5008981;28;20221;-85
2021/12/12 04:21:56;;;;;;;42.78;20.35;;;5.00;99.90;;;;;;4986673;28;21239;-88
2021/12/12 04:24:26;;;;;;;36.53;20.05;;;5.10;99.90;;;;;;4972329;28;20104;-85
2021/12/12 04:26:56;;;;;;;38.55;19.45;;;5.00;99.90;;;;;;5004443;28;20407;-87
2021/12/12 04:29:28;;;;;;;35.28;19.30;;;5.10;99.90;;;;;;5002300;28;20562;-87
2021/12/12 04:32:01;;;;;;;37.40;19.15;;;5.10;99.90;;;;;;5003389;28;20206;-85
2021/12/12 04:34:28;;;;;;;;;;;5.10;99.90;;;;;;4982576;28;20619;-85
2021/12/12 04:36:56;;;;;;;37.13;19.35;;;5.10;99.90;;;;;;5002783;28;19919;-86
2021/12/12 04:39:27;;;;;;;37.65;19.10;;;5.20;99.90;;;;;;5007451;28;20043;-85
2021/12/12 04:42:06;;;;;;;37.33;19.95;;;5.10;99.90;;;;;;5024471;28;20112;-85
2021/12/12 04:44:36;;;;;;;36.50;18.95;;;5.20;99.90;;;;;;5005832;28;20055;-86
2021/12/12 04:50:22;;;;;;;32.92;17.70;;;5.20;99.90;;;;;;5010160;28;20482;-86
2021/12/12 04:53:00;;;;;;;33.47;18.83;;;5.30;99.90;;;;;;4994014;28;20774;-90
2021/12/12 04:55:29;;;;;;;37.53;18.40;;;5.30;99.90;;;;;;5001087;28;20086;-86
2021/12/12 04:58:06;;;;;;;33.28;17.63;;;5.30;99.90;;;;;;5004781;28;20698;-86
2021/12/12 05:00:41;;;;;;;30.75;17.83;;;5.30;99.90;;;;;;5006008;28;20219;-86
2021/12/12 05:03:12;;;;;;;35.45;17.58;;;5.30;99.90;;;;;;5008710;28;20218;-88
2021/12/12 05:05:53;;;;;;;29.30;17.60;;;5.30;99.90;;;;;;4987624;28;20051;-87
2021/12/12 05:08:27;;;;;;;29.27;17.08;;;5.30;99.90;;;;;;4986135;28;20047;-87
2021/12/12 05:11:01;;;;;;;32.38;17.98;;;5.30;99.90;;;;;;5002492;28;20136;-88
2021/12/12 05:13:59;;;;;;;33.03;17.90;;;5.30;99.90;;;;;;4997828;28;20386;-86
2021/12/12 05:16:30;;;;;;;35.08;17.60;;;5.30;99.90;;;;;;4983708;28;20087;-86
2021/12/12 05:19:05;;;;;;;30.30;17.33;;;5.30;99.90;;;;;;4995838;28;20747;-85
2021/12/12 05:21:36;;;;;;;33.72;17.52;;;5.30;99.90;;;;;;4999866;28;20587;-87
2021/12/12 05:24:06;;;;;;;30.02;16.55;;;5.40;99.90;;;;;;5007598;28;20070;-87
2021/12/12 05:26:51;;;;;;;29.23;16.10;;;5.30;99.90;;;;;;4998580;28;20043;-86
2021/12/12 05:29:28;;;;;;;30.52;16.48;;;5.40;99.90;;;;;;5005628;28;20551;-89
2021/12/12 05:31:57;;;;;;;25.88;15.27;;;5.40;99.90;;;;;;4982677;28;20055;-87
2021/12/12 05:34:28;;;;;;;22.88;14.82;;;5.40;99.90;;;;;;5003105;28;20067;-87
2021/12/12 05:36:57;;;;;;;27.55;14.38;;;5.50;99.90;;;;;;4973502;28;20495;-85
2021/12/12 05:39:25;;;;;;;23.08;13.65;;;5.40;99.90;;;;;;5006462;28;20501;-86
2021/12/12 05:41:53;;;;;;;24.80;13.45;;;5.40;99.90;;;;;;4994408;28;20570;-85
2021/12/12 05:44:21;;;;;;;25.08;13.32;;;5.40;99.90;;;;;;4978536;28;20518;-87
2021/12/12 05:46:47;;;;;;;22.95;12.85;;;5.50;99.90;;;;;;4999153;28;20512;-88
2021/12/12 05:49:16;;;;;;;22.40;12.65;;;5.50;99.90;;;;;;4989766;28;20460;-86
2021/12/12 05:51:41;;;;;;;26.45;13.38;;;5.60;99.90;;;;;;4973126;28;20401;-86
2021/12/12 05:54:07;;;;;;;23.30;12.60;;;5.40;99.90;;;;;;4991447;28;20617;-87
2021/12/12 05:56:36;;;;;;;22.45;12.20;;;5.50;99.90;;;;;;4997032;28;20529;-86
2021/12/12 05:59:05;;;;;;;21.05;12.07;;;5.50;99.90;;;;;;5001932;28;20047;-86
2021/12/12 06:01:31;;;;;;;20.10;11.45;;;5.50;99.90;;;;;;5002148;28;20067;-86
2021/12/12 06:03:58;;;;;;;22.10;11.57;;;5.50;99.90;;;;;;5004992;28;20126;-87
2021/12/12 06:06:27;;;;;;;19.05;11.82;;;5.50;99.90;;;;;;4989876;28;20803;-84
2021/12/12 06:08:59;;;;;;;21.80;12.27;;;5.50;99.90;;;;;;5012910;28;21009;-85
2021/12/12 06:11:28;;;;;;;20.52;12.27;;;5.50;99.90;;;;;;5002772;28;20059;-85
2021/12/12 06:13:55;;;;;;;17.92;11.20;;;5.50;99.90;;;;;;4983372;28;20052;-88
2021/12/12 06:16:23;;;;;;;20.15;11.82;;;5.50;99.90;;;;;;5002947;28;20081;-85
2021/12/12 06:19:01;;;;;;;20.60;12.48;;;5.50;99.90;;;;;;4998168;28;20055;-85
2021/12/12 06:21:28;;;;;;;17.13;11.45;;;5.50;99.90;;;;;;5005468;28;20040;-84
2021/12/12 06:23:55;;;;;;;21.10;11.75;;;5.50;99.90;;;;;;5004396;28;20556;-85
2021/12/12 06:26:22;;;;;;;19.15;11.63;;;5.50;99.90;;;;;;5007294;28;20481;-85
2021/12/12 06:28:49;;;;;;;21.05;12.18;;;5.50;99.90;;;;;;4995977;28;20043;-87
2021/12/12 06:31:15;;;;;;;19.15;12.32;;;5.50;99.90;;;;;;4974649;28;20897;-86
2021/12/12 06:33:41;;;;;;;17.63;11.68;;;5.50;99.90;;;;;;5002772;28;20052;-89
2021/12/12 06:36:10;;;;;;;18.70;11.82;;;5.60;99.90;;;;;;5007892;28;20209;-86
2021/12/12 06:38:39;;;;;;;19.08;12.57;;;5.50;99.90;;;;;;4983960;28;20150;-86
2021/12/12 06:41:06;;;;;;;20.55;12.57;;;5.60;99.90;;;;;;5002162;28;20492;-86
2021/12/12 06:43:33;;;;;;;18.95;11.82;;;5.50;99.90;;;;;;5002620;28;20641;-85
2021/12/12 06:45:59;;;;;;;18.20;12.07;;;5.50;99.90;;;;;;5004683;28;20340;-86
2021/12/12 06:48:25;;;;;;;20.13;12.15;;;5.60;99.90;;;;;;4978256;28;20579;-87
2021/12/12 06:50:54;;;;;;;19.42;12.27;;;5.60;99.90;;;;;;5003973;28;20040;-85
2021/12/12 06:53:22;;;;;;;20.70;12.63;;;5.60;99.90;;;;;;4983833;28;20052;-86
2021/12/12 06:55:49;;;;;;;18.75;12.50;;;5.60;99.90;;;;;;4983476;28;21231;-88
2021/12/12 06:58:19;;;;;;;20.58;12.90;;;5.60;99.90;;;;;;5000971;28;20105;-86
2021/12/12 07:00:49;;;;;;;23.75;13.48;;;5.70;99.90;;;;;;4984342;28;20404;-86
2021/12/12 07:03:17;;;;;;;18.75;12.57;;;5.60;99.90;;;;;;5006566;28;20047;-87
2021/12/12 07:05:44;;;;;;;19.38;12.82;;;5.60;99.90;;;;;;4988217;28;20069;-86
2021/12/12 07:08:11;;;;;;;23.10;14.05;;;5.70;99.90;;;;;;4983031;28;20059;-86
2021/12/12 07:10:37;;;;;;;22.67;14.07;;;5.70;99.90;;;;;;5000045;28;20055;-87
2021/12/12 07:13:05;;;;;;;19.83;13.32;;;5.70;99.90;;;;;;4985161;28;20439;-87
2021/12/12 07:15:39;;;;;;;21.35;13.60;;;5.70;99.90;;;;;;4987587;28;20127;-85
2021/12/12 07:18:10;;;;;;;24.10;14.07;;;5.70;99.90;;;;;;4987511;28;20048;-85
2021/12/12 07:20:37;;;;;;;21.85;14.10;;;5.80;99.90;;;;;;4964935;28;20056;-86
2021/12/12 07:23:10;;;;;;;21.85;14.20;;;5.70;99.90;;;;;;4987360;28;20075;-86
2021/12/12 07:25:38;;;;;;;25.75;14.73;;;5.70;99.90;;;;;;4966473;28;20115;-87
2021/12/12 07:28:05;;;;;;;25.45;15.00;;;5.80;99.90;;;;;;4984231;28;20079;-86
2021/12/12 07:30:32;;;;;;;28.45;15.45;;;5.70;99.90;;;;;;4956304;28;20048;-87
2021/12/12 07:33:03;;;;;;;24.42;15.00;;;5.80;99.90;;;;;;4985540;28;20207;-86
2021/12/12 07:35:31;;;;;;;27.33;15.23;;;5.80;99.90;;;;;;4988060;28;20055;-86
2021/12/12 07:37:58;;;;;;;27.23;16.00;;;5.70;99.90;;;;;;4988755;28;20533;-88
2021/12/12 07:40:24;;;;;;;30.52;16.52;;;5.80;99.90;;;;;;4988871;28;20051;-87
2021/12/12 07:42:50;;;;;;;27.05;16.08;;;5.80;99.90;;;;;;4967166;28;20804;-86
2021/12/12 07:45:20;;;;;;;28.58;16.27;;;5.90;99.90;;;;;;4966450;28;20703;-86
2021/12/12 07:47:47;;;;;;;28.65;16.38;;;5.80;99.90;;;;;;4952029;28;21044;-86
2021/12/12 07:50:16;;;;;;;28.90;16.48;;;5.90;99.90;;;;;;4976665;28;20466;-86
2021/12/12 07:52:44;;;;;;;29.33;17.48;;;5.90;99.90;;;;;;4967532;28;20048;-87
2021/12/12 07:55:10;;;;;;;28.67;16.67;;;5.90;99.90;;;;;;4967796;28;20549;-87
2021/12/12 07:57:37;;;;;;;31.10;17.55;;;5.90;99.90;;;;;;4983363;28;20547;-88
2021/12/12 08:00:11;;;;;;;33.40;17.90;;;6.00;99.90;;;;;;4990696;28;20204;-85
2021/12/12 08:02:37;;;;;;;32.70;18.27;;;6.00;99.90;;;;;;4990936;28;20090;-86
2021/12/12 08:05:04;;;;;;;36.10;18.23;;;6.00;99.90;;;;;;4975341;28;20044;-87
2021/12/12 08:07:32;;;;;;;33.40;18.27;;;6.00;99.90;;;;;;4981075;28;20052;-87
2021/12/12 08:09:59;;;;;;;36.55;19.27;;;6.00;99.90;;;;;;4973059;28;20044;-86
2021/12/12 08:12:28;;;;;;;34.42;18.40;;;6.00;99.90;;;;;;5001797;28;23369;-88
2021/12/12 08:14:55;;;;;;;36.45;18.52;;;6.10;99.90;;;;;;5005246;28;20112;-88
2021/12/12 08:17:21;;;;;;;33.78;18.02;;;6.10;99.90;;;;;;5014299;28;20079;-85
2021/12/12 08:19:55;;;;;;;35.20;19.08;;;6.10;99.90;;;;;;4988988;28;20192;-88
2021/12/12 08:22:24;;;;;;;40.45;19.70;;;6.10;99.90;;;;;;5024770;28;20656;-86
2021/12/12 08:24:51;;;;;;;36.80;18.67;;;6.20;99.90;;;;;;4990669;28;20278;-86
2021/12/12 08:27:17;;;;;;;35.35;18.35;;;6.20;99.90;;;;;;4987202;28;20052;-87
2021/12/12 08:29:43;;;;;;;34.83;18.48;;;6.20;99.90;;;;;;5004505;28;20043;-87
2021/12/12 08:32:12;;;;;;;32.10;18.08;;;6.20;99.90;;;;;;4976756;28;20409;-86
2021/12/12 08:34:39;;;;;;;33.80;17.92;;;6.20;99.90;;;;;;5005438;28;20774;-86
2021/12/12 08:37:06;;;;;;;39.15;19.10;;;6.30;99.90;;;;;;4980318;28;20902;-86
2021/12/12 08:39:33;;;;;;;32.58;17.35;;;6.30;99.90;;;;;;4993306;28;20139;-86
2021/12/12 08:42:00;;;;;;;38.35;18.80;;;6.40;99.90;;;;;;5001450;28;20082;-87
2021/12/12 08:44:28;;;;;;;34.97;18.60;;;6.40;99.90;;;;;;5002689;28;20337;-85
2021/12/12 08:46:57;;;;;;;32.55;18.35;;;6.40;99.90;;;;;;5006634;28;20047;-87
2021/12/12 08:49:28;;;;;;;36.83;18.58;;;6.40;99.90;;;;;;5009521;28;20044;-87
2021/12/12 08:52:13;;;;;;;31.17;18.48;;;6.40;99.90;;;;;;4993977;28;20943;-86
2021/12/12 08:54:41;;;;;;;29.17;17.38;;;6.40;99.90;;;;;;5006112;28;20052;-87
2021/12/12 08:57:20;;;;;;;30.10;17.15;;;6.50;99.90;;;;;;5008260;28;20094;-85
2021/12/12 08:59:47;;;;;;;31.55;17.85;;;6.50;99.90;;;;;;5004697;28;20715;-86
2021/12/12 09:02:16;;;;;;;30.15;17.08;;;6.60;99.90;;;;;;4975034;28;20039;-85
2021/12/12 09:04:54;;;;;;;28.52;15.80;;;6.60;99.90;;;;;;4999768;28;21270;-83
2021/12/12 09:07:24;;;;;;;30.08;17.10;;;6.60;99.90;;;;;;5005272;28;20618;-86
2021/12/12 09:10:03;;;;;;;27.90;16.20;;;6.70;99.90;;;;;;4989319;28;20039;-86
2021/12/12 09:12:34;;;;;;;27.20;15.65;;;6.80;99.90;;;;;;4998538;28;20078;-85
2021/12/12 09:15:03;;;;;;;28.92;15.23;;;6.80;99.90;;;;;;4987657;28;20186;-84
2021/12/12 09:17:35;;;;;;;24.63;15.55;;;6.90;99.90;;;;;;4997747;28;20474;-83
2021/12/12 09:20:27;;;;;;;26.13;15.10;;;6.90;99.90;;;;;;4995622;28;20055;-85
2021/12/12 09:22:59;;;;;;;26.05;15.20;;;6.90;99.90;;;;;;5006284;28;20412;-86
2021/12/12 09:25:41;;;;;;;25.60;15.60;;;6.90;99.90;;;;;;5016339;28;20052;-84
2021/12/12 09:28:20;;;;;;;26.17;14.75;;;7.00;99.90;;;;;;5004245;28;20048;-86
2021/12/12 09:30:53;;;;;;;25.73;15.02;;;6.90;99.90;;;;;;4984234;28;20252;-86
2021/12/12 09:33:24;;;;;;;27.48;15.68;;;7.00;99.90;;;;;;4985476;28;20087;-86
2021/12/12 09:35:55;;;;;;;27.50;15.60;;;7.00;99.90;;;;;;5005405;28;20047;-87
2021/12/12 09:38:46;;;;;;;27.73;16.15;;;7.10;99.90;;;;;;4988530;28;20047;-85
2021/12/12 09:41:49;;;;;;;26.75;15.90;;;7.00;99.90;;;;;;5005328;28;20097;-85
2021/12/12 09:44:50;;;;;;;30.13;16.77;;;7.20;99.90;;;;;;4971568;28;20067;-84
2021/12/12 09:47:59;;;;;;;27.33;16.35;;;7.10;99.90;;;;;;5002329;28;20653;-85
2021/12/12 09:53:57;;;;;;;32.67;17.95;;;7.20;99.90;;;;;;5001240;28;20771;-85
2021/12/12 09:56:50;;;;;;;31.27;18.33;;;7.30;99.90;;;;;;5005350;28;20043;-86
2021/12/12 09:59:43;;;;;;;35.38;18.75;;;7.40;99.90;;;;;;5011507;28;20058;-86
2021/12/12 10:02:42;;;;;;;32.77;19.00;;;7.40;99.90;;;;;;4979702;28;20447;-86
2021/12/12 10:05:12;;;;;;;32.35;18.15;;;7.50;99.90;;;;;;5005241;28;20714;-83
2021/12/12 10:08:21;;;;;;;32.83;18.48;;;7.50;99.90;;;;;;4998902;28;20109;-86
2021/12/12 10:11:05;;;;;;;37.03;18.80;;;7.40;99.90;;;;;;5004875;28;20394;-86
2021/12/12 10:13:34;;;;;;;38.08;18.98;;;7.50;99.90;;;;;;5006930;28;20497;-85
2021/12/12 10:16:05;;;;;;;33.00;18.98;;;7.50;99.90;;;;;;4996416;28;20637;-87
2021/12/12 10:18:43;;;;;;;34.58;18.13;;;7.60;99.90;;;;;;5011351;28;20535;-86
2021/12/12 10:21:21;;;;;;;32.20;18.30;;;7.60;99.90;;;;;;5011495;28;20039;-85
2021/12/12 10:24:02;;;;;;;34.10;18.23;;;7.60;99.90;;;;;;4988250;28;20808;-87
2021/12/12 10:27:14;;;;;;;29.85;18.02;;;7.70;99.90;;;;;;5007440;28;21159;-85
2021/12/12 10:30:15;;;;;;;31.90;17.73;;;7.70;99.90;;;;;;4966709;28;20055;-86
2021/12/12 10:33:09;;;;;;;31.83;18.10;;;7.80;99.90;;;;;;5011141;28;20743;-86
2021/12/12 10:35:58;;;;;;;30.92;18.38;;;7.80;99.90;;;;;;5023606;28;20158;-84
2021/12/12 10:38:51;;;;;;;31.67;18.60;;;7.80;99.90;;;;;;5012277;28;20055;-86
2021/12/12 10:41:27;;;;;;;32.25;18.80;;;7.80;99.90;;;;;;4992028;28;20769;-85
2021/12/12 10:44:12;;;;;;;28.33;17.08;;;7.80;99.90;;;;;;5004919;28;20055;-87
2021/12/12 10:46:56;;;;;;;29.67;17.10;;;7.90;99.90;;;;;;5009449;28;20560;-87
2021/12/12 10:49:48;;;;;;;29.90;16.80;;;8.00;99.90;;;;;;5006994;28;20912;-87
2021/12/12 10:52:33;;;;;;;29.35;17.08;;;8.00;99.90;;;;;;4999863;28;20437;-87
2021/12/12 10:55:09;;;;;;;27.67;16.05;;;8.00;99.90;;;;;;4998407;28;20058;-86
2021/12/12 10:57:38;;;;;;;26.70;16.02;;;8.00;99.90;;;;;;5012358;28;20455;-88
2021/12/12 11:00:15;;;;;;;27.10;16.40;;;8.00;99.90;;;;;;5014073;28;20778;-87
2021/12/12 11:03:02;;;;;;;29.83;17.48;;;8.10;99.90;;;;;;5010560;28;20412;-87
2021/12/12 11:05:41;;;;;;;26.55;15.95;;;8.20;99.90;;;;;;5000075;28;20412;-85
2021/12/12 11:08:16;;;;;;;24.95;15.82;;;8.20;99.90;;;;;;5044327;28;20044;-86
2021/12/12 11:10:44;;;;;;;24.00;15.20;;;8.20;99.90;;;;;;5012164;28;20690;-87
2021/12/12 11:13:15;;;;;;;26.10;16.30;;;8.30;99.90;;;;;;5004441;28;20462;-85
2021/12/12 11:15:50;;;;;;;26.85;14.75;;;8.30;99.90;;;;;;5010814;28;20214;-85
2021/12/12 11:18:45;;;;;;;25.40;14.88;;;8.40;99.90;;;;;;4988379;28;20032;-87
2021/12/12 11:21:27;;;;;;;22.10;14.13;;;8.40;99.90;;;;;;4986437;28;20051;-86
2021/12/12 11:24:00;;;;;;;22.42;13.75;;;8.40;99.90;;;;;;4992953;28;20371;-88
2021/12/12 11:26:42;;;;;;;19.75;12.73;;;8.40;99.90;;;;;;5002234;28;20990;-86
2021/12/12 11:29:16;;;;;;;21.10;13.68;;;8.50;99.90;;;;;;5008097;28;20457;-86
2021/12/12 11:31:56;;;;;;;21.33;12.85;;;8.50;99.90;;;;;;5006570;28;20113;-88
2021/12/12 11:34:25;;;;;;;19.67;12.80;;;8.50;99.90;;;;;;5000547;28;20505;-85
2021/12/12 11:37:05;;;;;;;19.08;12.93;;;8.50;99.90;;;;;;5000983;28;20075;-86
2021/12/12 11:40:11;;;;;;;21.02;12.63;;;8.40;99.90;;;;;;5000253;28;20523;-85
2021/12/12 11:42:44;;;;;;;19.05;12.07;;;8.40;99.90;;;;;;4966620;28;20064;-86
2021/12/12 11:45:28;;;;;;;18.35;12.38;;;8.40;99.90;;;;;;5002046;28;20152;-85
2021/12/12 11:48:27;;;;;;;19.23;12.20;;;8.40;99.90;;;;;;4993560;28;20054;-84
2021/12/12 11:51:14;;;;;;;18.38;12.23;;;8.50;99.90;;;;;;4976267;28;20048;-85
2021/12/12 11:53:55;;;;;;;20.25;12.60;;;8.50;99.90;;;;;;4976935;28;20076;-88
2021/12/12 11:56:29;;;;;;;19.10;12.20;;;8.50;99.90;;;;;;5002914;28;20120;-87
2021/12/12 11:59:15;;;;;;;19.02;12.10;;;8.60;99.90;;;;;;4978879;28;20048;-87
2021/12/12 12:01:51;;;;;;;19.40;12.18;;;8.60;99.90;;;;;;4995200;28;20058;-88
2021/12/12 12:04:35;;;;;;;18.80;12.02;;;8.60;99.90;;;;;;4984537;28;20052;-85
2021/12/12 12:07:20;;;;;;;;;;;8.60;99.90;;;;;;5003856;28;20446;-84
2021/12/12 12:10:03;;;;;;;;;;;8.60;99.90;;;;;;5006306;28;19928;-86
2021/12/12 12:12:58;;;;;;;21.65;14.13;;;8.60;99.90;;;;;;4993082;28;19963;-85
2021/12/12 12:15:49;;;;;;;22.00;14.88;;;8.60;99.90;;;;;;5007268;28;20641;-88
2021/12/12 12:18:59;;;;;;;25.60;16.27;;;8.70;99.90;;;;;;5003623;28;20047;-85
2021/12/12 12:21:40;;;;;;;24.20;15.68;;;8.70;99.90;;;;;;4923901;28;20504;-88
2021/12/12 12:24:36;;;;;;;27.17;16.50;;;8.60;99.90;;;;;;4997508;28;20059;-87
2021/12/12 12:27:13;;;;;;;27.35;16.95;;;8.70;99.90;;;;;;4996659;28;20976;-85
2021/12/12 12:30:00;;;;;;;29.98;16.70;;;8.70;99.90;;;;;;4992881;28;20044;-86
2021/12/12 12:33:04;;;;;;;28.38;16.02;;;8.60;99.90;;;;;;5016791;28;20096;-87
2021/12/12 12:35:59;;;;;;;27.33;16.27;;;8.70;99.90;;;;;;4980745;28;21030;-86
2021/12/12 12:39:02;;;;;;;28.48;16.88;;;8.70;99.90;;;;;;5002334;28;20493;-85
2021/12/12 12:42:06;;;;;;;29.42;16.25;;;8.60;99.90;;;;;;5021624;28;20881;-87
2021/12/12 12:44:43;;;;;;;29.98;16.67;;;8.70;99.90;;;;;;4988491;28;20079;-86
2021/12/12 12:47:52;;;;;;;29.77;16.58;;;8.70;99.90;;;;;;4992108;28;20417;-85
2021/12/12 12:50:39;;;;;;;32.83;17.50;;;8.80;99.90;;;;;;5004685;28;20036;-87
2021/12/12 12:53:33;;;;;;;32.42;17.00;;;8.80;99.90;;;;;;4997416;28;20531;-85
2021/12/12 12:56:35;;;;;;;28.98;17.25;;;8.80;99.90;;;;;;5000573;28;20043;-86
2021/12/12 12:59:04;;;;;;;33.17;17.40;;;8.80;99.90;;;;;;5009821;28;20500;-86
2021/12/12 13:01:38;;;;;;;32.25;17.67;;;8.90;99.90;;;;;;4999627;28;20704;-86
2021/12/12 13:04:12;;;;;;;37.22;18.52;;;8.90;99.90;;;;;;5003749;28;20449;-85
2021/12/12 13:06:57;;;;;;;31.52;18.13;;;9.00;99.90;;;;;;4998570;28;20884;-88
2021/12/12 13:09:42;;;;;;;36.17;18.88;;;8.90;99.90;;;;;;5006400;28;20127;-87
2021/12/12 13:12:36;;;;;;;34.28;17.83;;;9.00;99.90;;;;;;4996105;28;20531;-86
2021/12/12 13:15:19;;;;;;;38.95;18.88;;;9.00;99.90;;;;;;4998166;28;20060;-86
2021/12/12 13:18:07;;;;;;;37.45;19.15;;;9.00;99.90;;;;;;4991136;28;20070;-87
2021/12/12 13:20:42;;;;;;;34.67;18.92;;;9.10;99.90;;;;;;4989383;28;20146;-86
2021/12/12 13:23:47;;;;;;;34.50;18.60;;;9.00;99.90;;;;;;5006272;28;20826;-86
2021/12/12 13:26:23;;;;;;;37.92;19.60;;;9.10;99.90;;;;;;4981995;28;20043;-86
2021/12/12 13:29:14;;;;;;;34.42;19.08;;;9.10;99.90;;;;;;5000527;28;20046;-87
2021/12/12 13:32:04;;;;;;;40.55;20.25;;;9.20;99.90;;;;;;5003580;28;20519;-86
2021/12/12 13:34:43;;;;;;;40.78;20.40;;;9.20;99.90;;;;;;4996500;28;20047;-87
2021/12/12 13:38:04;;;;;;;41.60;20.65;;;9.20;99.90;;;;;;4981893;28;20102;-86
2021/12/12 13:40:42;;;;;;;41.58;20.40;;;9.20;99.90;;;;;;4961805;28;20144;-84
2021/12/12 13:43:36;;;;;;;37.38;19.85;;;9.30;99.90;;;;;;4988830;28;20176;-88